Terminal Aerodrome Forecast
Issued by NWS

Home | Current Version | Previous Version | Text Only | Print | Product List | Glossary On
Versions: 1 2 3 4 5 6 7 8 9 10 11 12
000
FTUS45 KFGZ 281100
TAFSEZ
TAF
KSEZ 281120Z 2812/2912 05012KT P6SM SCT250
     FM281400 VRB06KT P6SM BKN250
     FM282100 28007KT P6SM BKN250
     FM290100 03009KT P6SM SCT250=

USA.gov is the U.S. government's official web portal to all federal, state and local government web resources and services.